sensor_id;sensor_type;location;lat;lon;timestamp;temperature;humidity
26641;DHT22;14269;47.358;0.724;2024-03-07T00:02:14;15.0;38.0
26641;DHT22;14269;47.358;0.724;2024-03-07T00:04:56;15.0;38.0
26641;DHT22;14269;47.358;0.724;2024-03-07T00:07:28;15.0;39.0
26641;DHT22;14269;47.358;0.724;2024-03-07T00:10:00;15.0;39.0
26641;DHT22;14269;47.358;0.724;2024-03-07T00:12:33;15.0;39.0
26641;DHT22;14269;47.358;0.724;2024-03-07T00:15:14;15.0;39.0
26641;DHT22;14269;47.358;0.724;2024-03-07T00:17:55;15.0;38.0
26641;DHT22;14269;47.358;0.724;2024-03-07T00:20:26;15.0;38.0
26641;DHT22;14269;47.358;0.724;2024-03-07T00:22:58;15.0;38.0
26641;DHT22;14269;47.358;0.724;2024-03-07T00:25:31;15.0;38.0
26641;DHT22;14269;47.358;0.724;2024-03-07T00:28:11;15.0;38.0
26641;DHT22;14269;47.358;0.724;2024-03-07T00:30:45;15.0;38.0
26641;DHT22;14269;47.358;0.724;2024-03-07T00:33:25;15.0;39.0
26641;DHT22;14269;47.358;0.724;2024-03-07T00:35:56;15.0;39.0
26641;DHT22;14269;47.358;0.724;2024-03-07T00:38:28;15.0;38.0
26641;DHT22;14269;47.358;0.724;2024-03-07T00:40:59;15.0;38.0
26641;DHT22;14269;47.358;0.724;2024-03-07T00:43:31;15.0;38.0
26641;DHT22;14269;47.358;0.724;2024-03-07T00:46:03;15.0;38.0
26641;DHT22;14269;47.358;0.724;2024-03-07T00:48:45;15.0;38.0
26641;DHT22;14269;47.358;0.724;2024-03-07T00:51:26;15.0;38.0
26641;DHT22;14269;47.358;0.724;2024-03-07T00:53:58;15.0;38.0
26641;DHT22;14269;47.358;0.724;2024-03-07T00:56:29;15.0;38.0
26641;DHT22;14269;47.358;0.724;2024-03-07T00:59:01;15.0;38.0
26641;DHT22;14269;47.358;0.724;2024-03-07T01:01:34;15.0;38.0
26641;DHT22;14269;47.358;0.724;2024-03-07T01:04:15;15.0;38.0
26641;DHT22;14269;47.358;0.724;2024-03-07T01:06:47;15.0;39.0
26641;DHT22;14269;47.358;0.724;2024-03-07T01:09:19;15.0;38.0
26641;DHT22;14269;47.358;0.724;2024-03-07T01:11:50;15.0;39.0
26641;DHT22;14269;47.358;0.724;2024-03-07T01:14:22;15.0;39.0
26641;DHT22;14269;47.358;0.724;2024-03-07T01:17:03;15.0;39.0
26641;DHT22;14269;47.358;0.724;2024-03-07T01:19:35;15.0;39.0
26641;DHT22;14269;47.358;0.724;2024-03-07T01:22:08;15.0;39.0
26641;DHT22;14269;47.358;0.724;2024-03-07T01:24:48;15.0;39.0
26641;DHT22;14269;47.358;0.724;2024-03-07T01:27:20;15.0;39.0
26641;DHT22;14269;47.358;0.724;2024-03-07T01:29:53;15.0;39.0
26641;DHT22;14269;47.358;0.724;2024-03-07T01:32:33;15.0;39.0
26641;DHT22;14269;47.358;0.724;2024-03-07T01:35:07;15.0;39.0
26641;DHT22;14269;47.358;0.724;2024-03-07T01:37:47;15.0;39.0
26641;DHT22;14269;47.358;0.724;2024-03-07T01:40:19;15.0;39.0
26641;DHT22;14269;47.358;0.724;2024-03-07T01:42:50;15.0;40.0
26641;DHT22;14269;47.358;0.724;2024-03-07T01:45:22;15.0;39.0
26641;DHT22;14269;47.358;0.724;2024-03-07T01:47:55;14.0;39.0
26641;DHT22;14269;47.358;0.724;2024-03-07T01:50:38;14.0;39.0
26641;DHT22;14269;47.358;0.724;2024-03-07T01:53:17;14.0;39.0
26641;DHT22;14269;47.358;0.724;2024-03-07T01:55:48;14.0;38.0
26641;DHT22;14269;47.358;0.724;2024-03-07T01:58:21;14.0;38.0
26641;DHT22;14269;47.358;0.724;2024-03-07T02:01:02;14.0;39.0
26641;DHT22;14269;47.358;0.724;2024-03-07T02:03:33;15.0;39.0
26641;DHT22;14269;47.358;0.724;2024-03-07T02:06:05;15.0;39.0
26641;DHT22;14269;47.358;0.724;2024-03-07T02:08:36;15.0;39.0
26641;DHT22;14269;47.358;0.724;2024-03-07T02:11:09;15.0;39.0
26641;DHT22;14269;47.358;0.724;2024-03-07T02:13:50;15.0;39.0
26641;DHT22;14269;47.358;0.724;2024-03-07T02:16:21;15.0;39.0
26641;DHT22;14269;47.358;0.724;2024-03-07T02:18:54;15.0;39.0
26641;DHT22;14269;47.358;0.724;2024-03-07T02:21:35;15.0;40.0
26641;DHT22;14269;47.358;0.724;2024-03-07T02:24:06;15.0;40.0
26641;DHT22;14269;47.358;0.724;2024-03-07T02:26:48;15.0;40.0
26641;DHT22;14269;47.358;0.724;2024-03-07T02:29:20;15.0;40.0
26641;DHT22;14269;47.358;0.724;2024-03-07T02:31:52;15.0;40.0
26641;DHT22;14269;47.358;0.724;2024-03-07T02:34:23;15.0;40.0
26641;DHT22;14269;47.358;0.724;2024-03-07T02:36:55;15.0;40.0
26641;DHT22;14269;47.358;0.724;2024-03-07T02:39:26;15.0;40.0
26641;DHT22;14269;47.358;0.724;2024-03-07T02:41:58;15.0;40.0
26641;DHT22;14269;47.358;0.724;2024-03-07T02:44:31;15.0;40.0
26641;DHT22;14269;47.358;0.724;2024-03-07T02:47:11;15.0;40.0
26641;DHT22;14269;47.358;0.724;2024-03-07T02:49:44;15.0;40.0
26641;DHT22;14269;47.358;0.724;2024-03-07T02:52:16;15.0;40.0
26641;DHT22;14269;47.358;0.724;2024-03-07T02:54:57;15.0;40.0
26641;DHT22;14269;47.358;0.724;2024-03-07T02:57:28;15.0;40.0
26641;DHT22;14269;47.358;0.724;2024-03-07T03:00:00;15.0;40.0
26641;DHT22;14269;47.358;0.724;2024-03-07T03:02:32;15.0;40.0
26641;DHT22;14269;47.358;0.724;2024-03-07T03:05:04;15.0;40.0
26641;DHT22;14269;47.358;0.724;2024-03-07T03:07:52;15.0;40.0
26641;DHT22;14269;47.358;0.724;2024-03-07T03:10:29;15.0;40.0
26641;DHT22;14269;47.358;0.724;2024-03-07T03:13:08;15.0;40.0
26641;DHT22;14269;47.358;0.724;2024-03-07T03:15:40;15.0;40.0
26641;DHT22;14269;47.358;0.724;2024-03-07T03:18:12;15.0;40.0
26641;DHT22;14269;47.358;0.724;2024-03-07T03:20:44;15.0;40.0
26641;DHT22;14269;47.358;0.724;2024-03-07T03:23:25;15.0;40.0
26641;DHT22;14269;47.358;0.724;2024-03-07T03:25:57;15.0;40.0
26641;DHT22;14269;47.358;0.724;2024-03-07T03:28:29;15.0;40.0
26641;DHT22;14269;47.358;0.724;2024-03-07T03:31:00;15.0;40.0
26641;DHT22;14269;47.358;0.724;2024-03-07T03:33:32;15.0;40.0
26641;DHT22;14269;47.358;0.724;2024-03-07T03:36:04;15.0;40.0
26641;DHT22;14269;47.358;0.724;2024-03-07T03:38:35;15.0;39.0
26641;DHT22;14269;47.358;0.724;2024-03-07T03:41:07;14.0;39.0
26641;DHT22;14269;47.358;0.724;2024-03-07T03:43:38;14.0;39.0
26641;DHT22;14269;47.358;0.724;2024-03-07T03:46:11;14.0;39.0
26641;DHT22;14269;47.358;0.724;2024-03-07T03:48:52;14.0;39.0
26641;DHT22;14269;47.358;0.724;2024-03-07T03:51:25;14.0;40.0
26641;DHT22;14269;47.358;0.724;2024-03-07T03:54:05;14.0;40.0
26641;DHT22;14269;47.358;0.724;2024-03-07T03:56:39;14.0;40.0
26641;DHT22;14269;47.358;0.724;2024-03-07T03:59:18;14.0;40.0
26641;DHT22;14269;47.358;0.724;2024-03-07T04:01:50;14.0;40.0
26641;DHT22;14269;47.358;0.724;2024-03-07T04:04:23;14.0;40.0
26641;DHT22;14269;47.358;0.724;2024-03-07T04:07:04;14.0;40.0
26641;DHT22;14269;47.358;0.724;2024-03-07T04:09:37;15.0;40.0
26641;DHT22;14269;47.358;0.724;2024-03-07T04:12:19;15.0;40.0
26641;DHT22;14269;47.358;0.724;2024-03-07T04:14:59;14.0;40.0
26641;DHT22;14269;47.358;0.724;2024-03-07T04:17:31;14.0;40.0
26641;DHT22;14269;47.358;0.724;2024-03-07T04:20:06;15.0;40.0
26641;DHT22;14269;47.358;0.724;2024-03-07T04:22:44;14.0;40.0
26641;DHT22;14269;47.358;0.724;2024-03-07T04:25:15;14.0;40.0
26641;DHT22;14269;47.358;0.724;2024-03-07T04:27:49;14.0;40.0
26641;DHT22;14269;47.358;0.724;2024-03-07T04:30:29;14.0;40.0
26641;DHT22;14269;47.358;0.724;2024-03-07T04:33:00;14.0;40.0
26641;DHT22;14269;47.358;0.724;2024-03-07T04:35:32;14.0;40.0
26641;DHT22;14269;47.358;0.724;2024-03-07T04:38:08;14.0;40.0
26641;DHT22;14269;47.358;0.724;2024-03-07T04:40:47;14.0;40.0
26641;DHT22;14269;47.358;0.724;2024-03-07T04:43:28;14.0;39.0
26641;DHT22;14269;47.358;0.724;2024-03-07T04:45:59;14.0;40.0
26641;DHT22;14269;47.358;0.724;2024-03-07T04:48:30;14.0;40.0
26641;DHT22;14269;47.358;0.724;2024-03-07T04:51:03;14.0;40.0
26641;DHT22;14269;47.358;0.724;2024-03-07T04:53:37;14.0;40.0
26641;DHT22;14269;47.358;0.724;2024-03-07T04:56:16;14.0;40.0
26641;DHT22;14269;47.358;0.724;2024-03-07T04:58:49;14.0;40.0
26641;DHT22;14269;47.358;0.724;2024-03-07T05:01:31;14.0;40.0
26641;DHT22;14269;47.358;0.724;2024-03-07T05:04:12;14.0;40.0
26641;DHT22;14269;47.358;0.724;2024-03-07T05:06:52;14.0;40.0
26641;DHT22;14269;47.358;0.724;2024-03-07T05:09:25;14.0;40.0
26641;DHT22;14269;47.358;0.724;2024-03-07T05:12:06;14.0;40.0
26641;DHT22;14269;47.358;0.724;2024-03-07T05:14:38;14.0;40.0
26641;DHT22;14269;47.358;0.724;2024-03-07T05:17:09;14.0;40.0
26641;DHT22;14269;47.358;0.724;2024-03-07T05:19:41;14.0;40.0
26641;DHT22;14269;47.358;0.724;2024-03-07T05:22:16;14.0;40.0
26641;DHT22;14269;47.358;0.724;2024-03-07T05:24:57;14.0;39.0
26641;DHT22;14269;47.358;0.724;2024-03-07T05:27:36;14.0;40.0
26641;DHT22;14269;47.358;0.724;2024-03-07T05:30:11;14.0;40.0
26641;DHT22;14269;47.358;0.724;2024-03-07T05:32:49;14.0;40.0
26641;DHT22;14269;47.358;0.724;2024-03-07T05:35:21;14.0;40.0
26641;DHT22;14269;47.358;0.724;2024-03-07T05:37:56;14.0;40.0
26641;DHT22;14269;47.358;0.724;2024-03-07T05:40:34;14.0;40.0
26641;DHT22;14269;47.358;0.724;2024-03-07T05:43:06;14.0;40.0
26641;DHT22;14269;47.358;0.724;2024-03-07T05:45:38;14.0;40.0
26641;DHT22;14269;47.358;0.724;2024-03-07T05:48:14;14.0;40.0
26641;DHT22;14269;47.358;0.724;2024-03-07T05:50:51;14.0;40.0
26641;DHT22;14269;47.358;0.724;2024-03-07T05:53:23;14.0;40.0
26641;DHT22;14269;47.358;0.724;2024-03-07T05:55:54;14.0;40.0
26641;DHT22;14269;47.358;0.724;2024-03-07T05:58:26;14.0;40.0
26641;DHT22;14269;47.358;0.724;2024-03-07T06:00:58;14.0;40.0
26641;DHT22;14269;47.358;0.724;2024-03-07T06:03:29;14.0;40.0
26641;DHT22;14269;47.358;0.724;2024-03-07T06:06:01;14.0;40.0
26641;DHT22;14269;47.358;0.724;2024-03-07T06:08:33;14.0;40.0
26641;DHT22;14269;47.358;0.724;2024-03-07T06:11:05;14.0;40.0
26641;DHT22;14269;47.358;0.724;2024-03-07T06:13:46;14.0;40.0
26641;DHT22;14269;47.358;0.724;2024-03-07T06:16:19;14.0;39.0
26641;DHT22;14269;47.358;0.724;2024-03-07T06:18:59;14.0;40.0
26641;DHT22;14269;47.358;0.724;2024-03-07T06:21:41;14.0;39.0
26641;DHT22;14269;47.358;0.724;2024-03-07T06:24:15;14.0;40.0
26641;DHT22;14269;47.358;0.724;2024-03-07T06:26:59;14.0;40.0
26641;DHT22;14269;47.358;0.724;2024-03-07T06:29:36;14.0;40.0
26641;DHT22;14269;47.358;0.724;2024-03-07T06:32:08;14.0;40.0
26641;DHT22;14269;47.358;0.724;2024-03-07T06:34:40;14.0;40.0
26641;DHT22;14269;47.358;0.724;2024-03-07T06:37:12;14.0;39.0
26641;DHT22;14269;47.358;0.724;2024-03-07T06:39:43;14.0;40.0
26641;DHT22;14269;47.358;0.724;2024-03-07T06:42:15;14.0;40.0
26641;DHT22;14269;47.358;0.724;2024-03-07T06:44:46;14.0;40.0
26641;DHT22;14269;47.358;0.724;2024-03-07T06:47:19;14.0;40.0
26641;DHT22;14269;47.358;0.724;2024-03-07T06:49:50;14.0;39.0
26641;DHT22;14269;47.358;0.724;2024-03-07T06:52:32;14.0;40.0
26641;DHT22;14269;47.358;0.724;2024-03-07T06:55:06;14.0;40.0
26641;DHT22;14269;47.358;0.724;2024-03-07T06:57:45;14.0;40.0
26641;DHT22;14269;47.358;0.724;2024-03-07T07:00:19;14.0;40.0
26641;DHT22;14269;47.358;0.724;2024-03-07T07:02:58;14.0;40.0
26641;DHT22;14269;47.358;0.724;2024-03-07T07:05:30;14.0;40.0
26641;DHT22;14269;47.358;0.724;2024-03-07T07:08:01;14.0;40.0
26641;DHT22;14269;47.358;0.724;2024-03-07T07:10:33;14.0;40.0
26641;DHT22;14269;47.358;0.724;2024-03-07T07:13:05;14.0;40.0
26641;DHT22;14269;47.358;0.724;2024-03-07T07:15:37;14.0;40.0
26641;DHT22;14269;47.358;0.724;2024-03-07T07:18:08;14.0;40.0
26641;DHT22;14269;47.358;0.724;2024-03-07T07:20:52;14.0;40.0
26641;DHT22;14269;47.358;0.724;2024-03-07T07:23:31;15.0;40.0
26641;DHT22;14269;47.358;0.724;2024-03-07T07:26:05;15.0;40.0
26641;DHT22;14269;47.358;0.724;2024-03-07T07:28:45;15.0;40.0
26641;DHT22;14269;47.358;0.724;2024-03-07T07:31:16;15.0;39.0
26641;DHT22;14269;47.358;0.724;2024-03-07T07:33:49;15.0;39.0
26641;DHT22;14269;47.358;0.724;2024-03-07T07:36:30;15.0;39.0
26641;DHT22;14269;47.358;0.724;2024-03-07T07:39:03;16.0;39.0
26641;DHT22;14269;47.358;0.724;2024-03-07T07:41:43;16.0;39.0
26641;DHT22;14269;47.358;0.724;2024-03-07T07:44:15;16.0;38.0
26641;DHT22;14269;47.358;0.724;2024-03-07T07:46:47;16.0;38.0
26641;DHT22;14269;47.358;0.724;2024-03-07T07:49:19;16.0;38.0
26641;DHT22;14269;47.358;0.724;2024-03-07T07:52:00;16.0;38.0
26641;DHT22;14269;47.358;0.724;2024-03-07T07:54:32;17.0;38.0
26641;DHT22;14269;47.358;0.724;2024-03-07T07:57:04;17.0;37.0
26641;DHT22;14269;47.358;0.724;2024-03-07T07:59:36;17.0;37.0
26641;DHT22;14269;47.358;0.724;2024-03-07T08:02:17;17.0;37.0
26641;DHT22;14269;47.358;0.724;2024-03-07T08:04:49;18.0;36.0
26641;DHT22;14269;47.358;0.724;2024-03-07T08:07:20;18.0;35.0
26641;DHT22;14269;47.358;0.724;2024-03-07T08:09:51;18.0;35.0
26641;DHT22;14269;47.358;0.724;2024-03-07T08:12:23;18.0;34.0
26641;DHT22;14269;47.358;0.724;2024-03-07T08:14:56;18.0;34.0
26641;DHT22;14269;47.358;0.724;2024-03-07T08:17:37;18.0;35.0
26641;DHT22;14269;47.358;0.724;2024-03-07T08:20:12;18.0;34.0
26641;DHT22;14269;47.358;0.724;2024-03-07T08:22:53;19.0;33.0
26641;DHT22;14269;47.358;0.724;2024-03-07T08:25:32;19.0;33.0
26641;DHT22;14269;47.358;0.724;2024-03-07T08:28:05;19.0;32.0
26641;DHT22;14269;47.358;0.724;2024-03-07T08:30:46;19.0;32.0
26641;DHT22;14269;47.358;0.724;2024-03-07T08:33:17;19.0;32.0
26641;DHT22;14269;47.358;0.724;2024-03-07T08:35:59;19.0;32.0
26641;DHT22;14269;47.358;0.724;2024-03-07T08:38:33;19.0;32.0
26641;DHT22;14269;47.358;0.724;2024-03-07T08:41:12;20.0;31.0
26641;DHT22;14269;47.358;0.724;2024-03-07T08:43:44;20.0;30.0
26641;DHT22;14269;47.358;0.724;2024-03-07T08:46:15;20.0;30.0
26641;DHT22;14269;47.358;0.724;2024-03-07T08:48:48;20.0;30.0
26641;DHT22;14269;47.358;0.724;2024-03-07T08:51:29;21.0;29.0
26641;DHT22;14269;47.358;0.724;2024-03-07T08:54:00;21.0;29.0
26641;DHT22;14269;47.358;0.724;2024-03-07T08:56:32;21.0;30.0
26641;DHT22;14269;47.358;0.724;2024-03-07T08:59:04;21.0;29.0
26641;DHT22;14269;47.358;0.724;2024-03-07T09:01:35;21.0;28.0
26641;DHT22;14269;47.358;0.724;2024-03-07T09:04:07;21.0;29.0
26641;DHT22;14269;47.358;0.724;2024-03-07T09:06:39;21.0;29.0
26641;DHT22;14269;47.358;0.724;2024-03-07T09:09:10;21.0;29.0
26641;DHT22;14269;47.358;0.724;2024-03-07T09:11:42;22.0;28.0
26641;DHT22;14269;47.358;0.724;2024-03-07T09:14:13;22.0;28.0
26641;DHT22;14269;47.358;0.724;2024-03-07T09:16:48;22.0;27.0
26641;DHT22;14269;47.358;0.724;2024-03-07T09:19:28;23.0;27.0
26641;DHT22;14269;47.358;0.724;2024-03-07T09:22:09;24.0;25.0
26641;DHT22;14269;47.358;0.724;2024-03-07T09:24:40;24.0;24.0
26641;DHT22;14269;47.358;0.724;2024-03-07T09:27:13;24.0;24.0
26641;DHT22;14269;47.358;0.724;2024-03-07T09:29:54;24.0;24.0
26641;DHT22;14269;47.358;0.724;2024-03-07T09:32:25;25.0;23.0
26641;DHT22;14269;47.358;0.724;2024-03-07T09:35:11;25.0;23.0
26641;DHT22;14269;47.358;0.724;2024-03-07T09:37:49;24.0;23.0
26641;DHT22;14269;47.358;0.724;2024-03-07T09:40:24;25.0;23.0
26641;DHT22;14269;47.358;0.724;2024-03-07T09:43:03;25.0;23.0
26641;DHT22;14269;47.358;0.724;2024-03-07T09:45:45;25.0;22.0
26641;DHT22;14269;47.358;0.724;2024-03-07T09:48:28;25.0;23.0
26641;DHT22;14269;47.358;0.724;2024-03-07T09:51:09;25.0;23.0
26641;DHT22;14269;47.358;0.724;2024-03-07T09:53:52;25.0;23.0
26641;DHT22;14269;47.358;0.724;2024-03-07T09:56:32;25.0;23.0
26641;DHT22;14269;47.358;0.724;2024-03-07T09:59:04;26.0;22.0
26641;DHT22;14269;47.358;0.724;2024-03-07T10:01:47;25.0;23.0
26641;DHT22;14269;47.358;0.724;2024-03-07T10:04:30;25.0;23.0
26641;DHT22;14269;47.358;0.724;2024-03-07T10:07:12;25.0;23.0
26641;DHT22;14269;47.358;0.724;2024-03-07T10:09:52;26.0;22.0
26641;DHT22;14269;47.358;0.724;2024-03-07T10:12:31;27.0;21.0
26641;DHT22;14269;47.358;0.724;2024-03-07T10:15:05;25.0;22.0
26641;DHT22;14269;47.358;0.724;2024-03-07T10:17:45;25.0;22.0
26641;DHT22;14269;47.358;0.724;2024-03-07T10:20:20;25.0;23.0
26641;DHT22;14269;47.358;0.724;2024-03-07T10:22:59;24.0;23.0
26641;DHT22;14269;47.358;0.724;2024-03-07T10:25:40;24.0;23.0
26641;DHT22;14269;47.358;0.724;2024-03-07T10:28:12;24.0;23.0
26641;DHT22;14269;47.358;0.724;2024-03-07T10:30:46;25.0;23.0
26641;DHT22;14269;47.358;0.724;2024-03-07T10:33:27;25.0;22.0
26641;DHT22;14269;47.358;0.724;2024-03-07T10:36:10;26.0;21.0
26641;DHT22;14269;47.358;0.724;2024-03-07T10:38:49;25.0;22.0
26641;DHT22;14269;47.358;0.724;2024-03-07T10:41:20;25.0;23.0
26641;DHT22;14269;47.358;0.724;2024-03-07T10:44:04;23.0;24.0
26641;DHT22;14269;47.358;0.724;2024-03-07T10:46:48;23.0;25.0
26641;DHT22;14269;47.358;0.724;2024-03-07T10:49:30;23.0;24.0
26641;DHT22;14269;47.358;0.724;2024-03-07T10:52:13;23.0;24.0
26641;DHT22;14269;47.358;0.724;2024-03-07T10:55:02;23.0;24.0
26641;DHT22;14269;47.358;0.724;2024-03-07T10:57:49;24.0;23.0
26641;DHT22;14269;47.358;0.724;2024-03-07T11:00:30;24.0;22.0
26641;DHT22;14269;47.358;0.724;2024-03-07T11:03:15;24.0;23.0
26641;DHT22;14269;47.358;0.724;2024-03-07T11:05:47;25.0;22.0
26641;DHT22;14269;47.358;0.724;2024-03-07T11:08:28;25.0;22.0
26641;DHT22;14269;47.358;0.724;2024-03-07T11:10:59;24.0;23.0
26641;DHT22;14269;47.358;0.724;2024-03-07T11:13:32;23.0;23.0
26641;DHT22;14269;47.358;0.724;2024-03-07T11:16:14;23.0;24.0
26641;DHT22;14269;47.358;0.724;2024-03-07T11:19:27;23.0;24.0
26641;DHT22;14269;47.358;0.724;2024-03-07T11:22:28;24.0;23.0
26641;DHT22;14269;47.358;0.724;2024-03-07T11:25:07;24.0;23.0
26641;DHT22;14269;47.358;0.724;2024-03-07T11:27:51;24.0;22.0
26641;DHT22;14269;47.358;0.724;2024-03-07T11:30:32;24.0;23.0
26641;DHT22;14269;47.358;0.724;2024-03-07T11:33:17;25.0;22.0
26641;DHT22;14269;47.358;0.724;2024-03-07T11:35:58;25.0;21.0
26641;DHT22;14269;47.358;0.724;2024-03-07T11:38:37;25.0;21.0
26641;DHT22;14269;47.358;0.724;2024-03-07T11:41:13;25.0;21.0
26641;DHT22;14269;47.358;0.724;2024-03-07T11:43:55;25.0;21.0
26641;DHT22;14269;47.358;0.724;2024-03-07T11:46:33;25.0;21.0
26641;DHT22;14269;47.358;0.724;2024-03-07T11:49:15;25.0;20.0
26641;DHT22;14269;47.358;0.724;2024-03-07T11:51:57;26.0;20.0
26641;DHT22;14269;47.358;0.724;2024-03-07T11:54:40;25.0;21.0
26641;DHT22;14269;47.358;0.724;2024-03-07T11:57:20;25.0;21.0
26641;DHT22;14269;47.358;0.724;2024-03-07T12:00:09;25.0;21.0
26641;DHT22;14269;47.358;0.724;2024-03-07T12:02:43;24.0;21.0
26641;DHT22;14269;47.358;0.724;2024-03-07T12:05:16;25.0;21.0
26641;DHT22;14269;47.358;0.724;2024-03-07T12:07:57;24.0;22.0
26641;DHT22;14269;47.358;0.724;2024-03-07T12:10:28;25.0;21.0
26641;DHT22;14269;47.358;0.724;2024-03-07T12:13:01;25.0;22.0
26641;DHT22;14269;47.358;0.724;2024-03-07T12:15:42;25.0;21.0
26641;DHT22;14269;47.358;0.724;2024-03-07T12:18:24;25.0;21.0
26641;DHT22;14269;47.358;0.724;2024-03-07T12:21:08;24.0;22.0
26641;DHT22;14269;47.358;0.724;2024-03-07T12:23:47;25.0;21.0
26641;DHT22;14269;47.358;0.724;2024-03-07T12:26:21;25.0;21.0
26641;DHT22;14269;47.358;0.724;2024-03-07T12:29:07;24.0;21.0
26641;DHT22;14269;47.358;0.724;2024-03-07T12:31:42;24.0;21.0
26641;DHT22;14269;47.358;0.724;2024-03-07T12:34:14;24.0;22.0
26641;DHT22;14269;47.358;0.724;2024-03-07T12:36:45;25.0;21.0
26641;DHT22;14269;47.358;0.724;2024-03-07T12:39:25;23.0;21.0
26641;DHT22;14269;47.358;0.724;2024-03-07T12:41:59;24.0;21.0
26641;DHT22;14269;47.358;0.724;2024-03-07T12:44:46;24.0;21.0
26641;DHT22;14269;47.358;0.724;2024-03-07T12:47:24;25.0;21.0
26641;DHT22;14269;47.358;0.724;2024-03-07T12:50:07;24.0;21.0
26641;DHT22;14269;47.358;0.724;2024-03-07T12:52:46;25.0;21.0
26641;DHT22;14269;47.358;0.724;2024-03-07T12:55:27;25.0;21.0
26641;DHT22;14269;47.358;0.724;2024-03-07T12:57:59;24.0;21.0
26641;DHT22;14269;47.358;0.724;2024-03-07T13:00:31;25.0;20.0
26641;DHT22;14269;47.358;0.724;2024-03-07T13:03:03;24.0;21.0
26641;DHT22;14269;47.358;0.724;2024-03-07T13:05:44;25.0;21.0
26641;DHT22;14269;47.358;0.724;2024-03-07T13:08:16;25.0;20.0
26641;DHT22;14269;47.358;0.724;2024-03-07T13:10:47;25.0;20.0
26641;DHT22;14269;47.358;0.724;2024-03-07T13:13:20;25.0;20.0
26641;DHT22;14269;47.358;0.724;2024-03-07T13:16:01;25.0;20.0
26641;DHT22;14269;47.358;0.724;2024-03-07T13:18:33;25.0;20.0
26641;DHT22;14269;47.358;0.724;2024-03-07T13:21:06;25.0;20.0
26641;DHT22;14269;47.358;0.724;2024-03-07T13:23:46;25.0;21.0
26641;DHT22;14269;47.358;0.724;2024-03-07T13:26:23;25.0;21.0
26641;DHT22;14269;47.358;0.724;2024-03-07T13:29:01;26.0;21.0
26641;DHT22;14269;47.358;0.724;2024-03-07T13:31:43;26.0;20.0
26641;DHT22;14269;47.358;0.724;2024-03-07T13:34:26;26.0;20.0
26641;DHT22;14269;47.358;0.724;2024-03-07T13:37:04;26.0;20.0
26641;DHT22;14269;47.358;0.724;2024-03-07T13:39:36;26.0;20.0
26641;DHT22;14269;47.358;0.724;2024-03-07T13:42:11;26.0;21.0
26641;DHT22;14269;47.358;0.724;2024-03-07T13:44:50;26.0;21.0
26641;DHT22;14269;47.358;0.724;2024-03-07T13:47:21;25.0;21.0
26641;DHT22;14269;47.358;0.724;2024-03-07T13:49:53;25.0;21.0
26641;DHT22;14269;47.358;0.724;2024-03-07T13:52:27;26.0;20.0
26641;DHT22;14269;47.358;0.724;2024-03-07T13:55:09;26.0;21.0
26641;DHT22;14269;47.358;0.724;2024-03-07T13:57:51;25.0;22.0
26641;DHT22;14269;47.358;0.724;2024-03-07T14:00:41;26.0;20.0
26641;DHT22;14269;47.358;0.724;2024-03-07T14:03:41;26.0;20.0
26641;DHT22;14269;47.358;0.724;2024-03-07T14:06:30;26.0;20.0
26641;DHT22;14269;47.358;0.724;2024-03-07T14:14:28;26.0;21.0
26641;DHT22;14269;47.358;0.724;2024-03-07T14:17:40;26.0;21.0
26641;DHT22;14269;47.358;0.724;2024-03-07T14:23:01;26.0;21.0
26641;DHT22;14269;47.358;0.724;2024-03-07T14:25:48;26.0;21.0
26641;DHT22;14269;47.358;0.724;2024-03-07T14:28:49;26.0;21.0
26641;DHT22;14269;47.358;0.724;2024-03-07T14:31:30;25.0;22.0
26641;DHT22;14269;47.358;0.724;2024-03-07T14:34:08;25.0;22.0
26641;DHT22;14269;47.358;0.724;2024-03-07T14:36:47;25.0;22.0
26641;DHT22;14269;47.358;0.724;2024-03-07T14:39:26;26.0;21.0
26641;DHT22;14269;47.358;0.724;2024-03-07T14:41:58;26.0;22.0
26641;DHT22;14269;47.358;0.724;2024-03-07T14:44:39;26.0;21.0
26641;DHT22;14269;47.358;0.724;2024-03-07T14:47:20;25.0;22.0
26641;DHT22;14269;47.358;0.724;2024-03-07T14:49:52;26.0;22.0
26641;DHT22;14269;47.358;0.724;2024-03-07T14:52:24;26.0;21.0
26641;DHT22;14269;47.358;0.724;2024-03-07T14:55:07;26.0;21.0
26641;DHT22;14269;47.358;0.724;2024-03-07T14:57:47;27.0;21.0
26641;DHT22;14269;47.358;0.724;2024-03-07T15:00:19;26.0;21.0
26641;DHT22;14269;47.358;0.724;2024-03-07T15:02:50;26.0;22.0
26641;DHT22;14269;47.358;0.724;2024-03-07T15:05:22;25.0;23.0
26641;DHT22;14269;47.358;0.724;2024-03-07T15:07:54;25.0;23.0
26641;DHT22;14269;47.358;0.724;2024-03-07T15:10:36;25.0;24.0
26641;DHT22;14269;47.358;0.724;2024-03-07T15:13:12;24.0;24.0
26641;DHT22;14269;47.358;0.724;2024-03-07T15:15:49;24.0;25.0
26641;DHT22;14269;47.358;0.724;2024-03-07T15:18:22;23.0;25.0
26641;DHT22;14269;47.358;0.724;2024-03-07T15:21:05;23.0;25.0
26641;DHT22;14269;47.358;0.724;2024-03-07T15:23:44;23.0;25.0
26641;DHT22;14269;47.358;0.724;2024-03-07T15:26:18;23.0;25.0
26641;DHT22;14269;47.358;0.724;2024-03-07T15:28:57;23.0;25.0
26641;DHT22;14269;47.358;0.724;2024-03-07T15:31:40;23.0;25.0
26641;DHT22;14269;47.358;0.724;2024-03-07T15:34:11;23.0;26.0
26641;DHT22;14269;47.358;0.724;2024-03-07T15:36:59;23.0;25.0
26641;DHT22;14269;47.358;0.724;2024-03-07T15:39:38;23.0;25.0
26641;DHT22;14269;47.358;0.724;2024-03-07T15:42:16;23.0;25.0
26641;DHT22;14269;47.358;0.724;2024-03-07T15:44:48;23.0;25.0
26641;DHT22;14269;47.358;0.724;2024-03-07T15:47:21;23.0;25.0
26641;DHT22;14269;47.358;0.724;2024-03-07T15:50:01;23.0;25.0
26641;DHT22;14269;47.358;0.724;2024-03-07T15:52:34;22.0;25.0
26641;DHT22;14269;47.358;0.724;2024-03-07T15:55:15;23.0;26.0
26641;DHT22;14269;47.358;0.724;2024-03-07T15:57:50;23.0;25.0
26641;DHT22;14269;47.358;0.724;2024-03-07T16:00:29;23.0;26.0
26641;DHT22;14269;47.358;0.724;2024-03-07T16:03:10;23.0;26.0
26641;DHT22;14269;47.358;0.724;2024-03-07T16:05:42;23.0;26.0
26641;DHT22;14269;47.358;0.724;2024-03-07T16:08:23;23.0;26.0
26641;DHT22;14269;47.358;0.724;2024-03-07T16:10:55;23.0;26.0
26641;DHT22;14269;47.358;0.724;2024-03-07T16:13:27;23.0;26.0
26641;DHT22;14269;47.358;0.724;2024-03-07T16:15:58;22.0;26.0
26641;DHT22;14269;47.358;0.724;2024-03-07T16:18:30;22.0;27.0
26641;DHT22;14269;47.358;0.724;2024-03-07T16:21:01;22.0;27.0
26641;DHT22;14269;47.358;0.724;2024-03-07T16:23:33;22.0;27.0
26641;DHT22;14269;47.358;0.724;2024-03-07T16:26:05;22.0;27.0
26641;DHT22;14269;47.358;0.724;2024-03-07T16:28:36;22.0;27.0
26641;DHT22;14269;47.358;0.724;2024-03-07T16:31:09;22.0;27.0
26641;DHT22;14269;47.358;0.724;2024-03-07T16:33:50;22.0;28.0
26641;DHT22;14269;47.358;0.724;2024-03-07T16:36:21;22.0;28.0
26641;DHT22;14269;47.358;0.724;2024-03-07T16:38:53;22.0;28.0
26641;DHT22;14269;47.358;0.724;2024-03-07T16:41:24;22.0;28.0
26641;DHT22;14269;47.358;0.724;2024-03-07T16:43:56;22.0;28.0
26641;DHT22;14269;47.358;0.724;2024-03-07T16:46:28;22.0;28.0
26641;DHT22;14269;47.358;0.724;2024-03-07T16:48:59;22.0;28.0
26641;DHT22;14269;47.358;0.724;2024-03-07T16:51:31;22.0;28.0
26641;DHT22;14269;47.358;0.724;2024-03-07T16:54:05;22.0;28.0
26641;DHT22;14269;47.358;0.724;2024-03-07T16:56:44;22.0;28.0
26641;DHT22;14269;47.358;0.724;2024-03-07T16:59:18;22.0;28.0
26641;DHT22;14269;47.358;0.724;2024-03-07T17:01:58;22.0;28.0
26641;DHT22;14269;47.358;0.724;2024-03-07T17:04:29;22.0;29.0
26641;DHT22;14269;47.358;0.724;2024-03-07T17:07:03;22.0;29.0
26641;DHT22;14269;47.358;0.724;2024-03-07T17:09:43;22.0;29.0